Time;durP1;ratioP1;P1;durP2;ratioP2;P2;SDS_P1;SDS_P2;PMS_P1;PMS_P2;Temp;Humidity;BMP_temperature;BMP_pressure;BME280_temperature;BME280_humidity;BME280_pressure;Samples;Min_cycle;Max_cycle;Signal;HPM_P1;HPM_P2
2023/05/24 00:02:20;;;;;;;7.97;5.20;;;;;;;10.13;100.00;96520.91;7394670;19;20409;-74
2023/05/24 00:04:48;;;;;;;5.73;4.83;;;;;;;9.77;100.00;96450.84;7394895;19;20388;-74
2023/05/24 00:07:15;;;;;;;8.40;5.30;;;;;;;10.17;100.00;96513.13;7397507;19;20361;-73
2023/05/24 00:09:42;;;;;;;9.70;6.10;;;;;;;10.05;100.00;96488.16;7396721;19;20340;-74
2023/05/24 00:12:09;;;;;;;7.00;6.00;;;;;;;9.98;100.00;96482.59;7396290;19;20400;-74
2023/05/24 00:14:36;;;;;;;17.43;7.43;;;;;;;10.08;100.00;96476.94;7394847;19;20373;-74
2023/05/24 00:17:03;;;;;;;8.40;5.83;;;;;;;10.16;100.00;96498.38;7398051;19;20341;-74
2023/05/24 00:19:30;;;;;;;9.80;5.20;;;;;;;10.19;100.00;96503.78;7395905;19;20383;-73
2023/05/24 00:21:58;;;;;;;8.20;5.40;;;;;;;9.85;100.00;96486.22;7394785;19;21091;-74
2023/05/24 00:24:25;;;;;;;5.10;4.60;;;;;;;9.76;100.00;96491.53;7395879;19;20369;-74
2023/05/24 00:26:52;;;;;;;7.90;5.10;;;;;;;9.88;100.00;96468.94;7397563;19;20348;-74
2023/05/24 00:29:19;;;;;;;10.47;6.80;;;;;;;9.72;100.00;96474.00;7394706;19;20432;-74
2023/05/24 00:31:46;;;;;;;9.63;5.47;;;;;;;9.61;100.00;96472.78;7395245;19;20432;-73
2023/05/24 00:34:13;;;;;;;12.50;5.10;;;;;;;9.48;100.00;96469.25;7394631;19;20386;-73
2023/05/24 00:36:40;;;;;;;11.03;6.83;;;;;;;9.50;100.00;96474.25;7396284;19;20387;-73
2023/05/24 00:39:07;;;;;;;10.20;6.47;;;;;;;9.58;100.00;96492.69;7395705;19;20384;-73
2023/05/24 00:41:34;;;;;;;6.23;4.53;;;;;;;9.68;100.00;96473.09;7394895;19;20457;-73
2023/05/24 00:44:01;;;;;;;7.63;5.67;;;;;;;9.60;100.00;96489.72;7394544;19;20392;-73
2023/05/24 00:46:30;;;;;;;11.00;4.90;;;;;;;9.29;100.00;96477.53;7397215;19;20659;-73
2023/05/24 00:48:59;;;;;;;5.40;4.80;;;;;;;9.47;100.00;96488.81;7394394;19;20508;-73
2023/05/24 00:51:27;;;;;;;10.57;5.20;;;;;;;9.58;100.00;96497.19;7391517;19;20940;-73
2023/05/24 00:53:54;;;;;;;7.90;5.27;;;;;;;9.42;100.00;96502.97;7394242;19;20372;-73
2023/05/24 00:56:22;;;;;;;6.20;4.93;;;;;;;9.72;100.00;96498.53;7392724;19;20384;-73
2023/05/24 00:58:53;;;;;;;9.17;4.70;;;;;;;9.74;100.00;96498.22;7394380;19;20401;-73
2023/05/24 01:01:24;;;;;;;12.23;5.33;;;;;;;9.63;100.00;96483.81;7391180;19;20450;-73
2023/05/24 01:03:52;;;;;;;9.00;4.80;;;;;;;9.67;100.00;96468.91;7394293;19;20495;-73
2023/05/24 01:06:20;;;;;;;12.60;4.73;;;;;;;9.89;100.00;96473.16;7394187;19;20345;-73
2023/05/24 01:09:12;;;;;;;16.83;6.23;;;;;;;9.76;100.00;96469.66;7394180;19;20451;-73
2023/05/24 01:12:01;;;;;;;7.27;5.67;;;;;;;9.89;100.00;96504.88;7392480;19;20726;-73
2023/05/24 01:14:56;;;;;;;10.23;5.47;;;;;;;9.88;100.00;96503.28;7393089;19;20391;-74
2023/05/24 01:17:36;;;;;;;9.27;4.80;;;;;;;9.96;100.00;96499.84;7395118;19;20368;-73
2023/05/24 01:20:08;;;;;;;5.60;4.80;;;;;;;9.78;100.00;96472.75;7392915;19;21043;-73
2023/05/24 01:22:45;;;;;;;11.20;5.70;;;;;;;9.66;100.00;96476.03;7390915;19;20791;-73
2023/05/24 01:25:26;;;;;;;9.30;5.17;;;;;;;9.59;100.00;96478.38;7394351;19;20701;-73
2023/05/24 01:27:54;;;;;;;7.83;5.13;;;;;;;9.75;100.00;96468.09;7393136;19;20383;-73
2023/05/24 01:30:23;;;;;;;7.93;4.47;;;;;;;9.89;100.00;96479.22;7395939;19;20372;-73
2023/05/24 01:32:50;;;;;;;10.70;5.87;;;;;;;9.56;100.00;96418.31;7390716;19;20440;-73
2023/05/24 01:35:17;;;;;;;10.47;6.53;;;;;;;9.51;100.00;96452.81;7394861;19;20364;-73
2023/05/24 01:37:44;;;;;;;9.40;5.63;;;;;;;9.73;100.00;96505.34;7393203;19;20400;-74
2023/05/24 01:40:11;;;;;;;6.33;5.47;;;;;;;9.60;100.00;96473.88;7390901;19;20365;-74
2023/05/24 01:43:12;;;;;;;10.37;5.77;;;;;;;9.55;100.00;96461.63;7391790;19;20425;-74
2023/05/24 01:46:03;;;;;;;11.03;5.43;;;;;;;9.43;100.00;96483.41;7391459;19;20383;-74
2023/05/24 01:48:41;;;;;;;14.17;6.03;;;;;;;9.35;100.00;96464.97;7391739;19;20361;-73
2023/05/24 01:51:14;;;;;;;9.47;6.50;;;;;;;9.29;100.00;96459.06;7393905;19;20987;-73
2023/05/24 01:53:46;;;;;;;12.10;6.37;;;;;;;9.41;100.00;96464.47;7393195;19;20393;-74
2023/05/24 01:56:16;;;;;;;11.40;6.50;;;;;;;9.43;100.00;96493.19;7396268;19;20348;-74
2023/05/24 01:58:45;;;;;;;11.47;6.90;;;;;;;9.41;100.00;96496.13;7393594;19;20911;-74
2023/05/24 02:01:13;;;;;;;10.80;6.70;;;;;;;9.23;100.00;96493.84;7393426;19;20444;-74
2023/05/24 02:03:40;;;;;;;9.30;6.43;;;;;;;9.30;100.00;96473.81;7397819;19;20345;-73
2023/05/24 02:06:07;;;;;;;10.73;6.43;;;;;;;9.24;100.00;96476.94;7427282;19;20405;-73
2023/05/24 02:08:34;;;;;;;8.63;6.80;;;;;;;9.53;100.00;96479.66;7431886;19;20439;-73
2023/05/24 02:11:01;;;;;;;8.60;5.47;;;;;;;9.38;100.00;96490.72;7430608;19;20434;-73
2023/05/24 02:13:28;;;;;;;9.43;5.93;;;;;;;9.33;100.00;96465.25;7401083;19;20388;-74
2023/05/24 02:15:55;;;;;;;14.50;6.20;;;;;;;9.25;100.00;96489.81;7400605;19;20352;-74
2023/05/24 02:18:24;;;;;;;15.83;5.90;;;;;;;8.88;100.00;96457.72;7401061;19;20384;-73
2023/05/24 02:20:51;;;;;;;10.20;6.00;;;;;;;8.94;100.00;96447.78;7397358;19;20416;-74
2023/05/24 02:23:18;;;;;;;11.73;5.90;;;;;;;9.30;100.00;96488.88;7400397;19;20345;-73
2023/05/24 02:25:45;;;;;;;14.23;6.60;;;;;;;9.24;100.00;96485.63;7398660;19;20928;-73
2023/05/24 02:28:12;;;;;;;14.67;6.13;;;;;;;9.09;100.00;96489.53;7401587;19;20412;-73
2023/05/24 02:30:39;;;;;;;9.40;6.27;;;;;;;8.92;100.00;96488.75;7396326;19;20439;-73
2023/05/24 02:33:06;;;;;;;8.20;6.57;;;;;;;9.06;100.00;96486.72;7399870;19;20410;-73
2023/05/24 02:35:33;;;;;;;13.27;6.93;;;;;;;9.10;100.00;96479.75;7398698;19;20376;-73
2023/05/24 02:38:02;;;;;;;15.70;6.37;;;;;;;8.97;100.00;96460.38;7400168;19;20396;-73
2023/05/24 02:40:29;;;;;;;9.53;6.23;;;;;;;8.93;100.00;96459.44;7397588;19;20361;-74
2023/05/24 02:42:56;;;;;;;12.13;6.17;;;;;;;8.85;100.00;96476.81;7400718;19;20372;-73
2023/05/24 02:45:23;;;;;;;15.10;5.83;;;;;;;9.04;100.00;96487.03;7398390;19;20410;-74
2023/05/24 02:47:50;;;;;;;12.43;7.03;;;;;;;8.71;100.00;96447.19;7399918;19;20364;-73
2023/05/24 02:50:17;;;;;;;9.27;6.17;;;;;;;8.73;100.00;96492.47;7398295;19;20377;-73
2023/05/24 02:52:44;;;;;;;13.60;6.30;;;;;;;8.86;100.00;96459.13;7398825;19;20428;-73
2023/05/24 02:55:11;;;;;;;17.33;5.30;;;;;;;9.06;100.00;96489.34;7399951;19;20697;-73
2023/05/24 02:57:38;;;;;;;13.53;6.03;;;;;;;9.22;100.00;96489.66;7401079;19;20341;-73
2023/05/24 03:00:09;;;;;;;8.43;6.30;;;;;;;8.74;100.00;96451.84;7397825;19;20385;-73
2023/05/24 03:02:39;;;;;;;19.30;8.07;;;;;;;8.78;100.00;96497.59;7397343;19;20487;-73
2023/05/24 03:05:07;;;;;;;15.53;6.73;;;;;;;8.75;100.00;96469.22;7398509;19;20385;-74
2023/05/24 03:07:34;;;;;;;9.93;5.13;;;;;;;9.01;100.00;96492.16;7399649;19;20364;-74
2023/05/24 03:10:01;;;;;;;10.53;6.30;;;;;;;8.68;100.00;96487.38;7398506;19;20413;-73
2023/05/24 03:12:28;;;;;;;13.70;6.40;;;;;;;8.71;100.00;96481.47;7398127;19;20433;-73
2023/05/24 03:14:55;;;;;;;11.47;6.50;;;;;;;8.69;100.00;96502.09;7398364;19;20383;-73
2023/05/24 03:17:22;;;;;;;10.30;5.90;;;;;;;8.43;100.00;96469.66;7399302;19;20388;-73
2023/05/24 03:19:51;;;;;;;13.33;5.93;;;;;;;8.56;100.00;96495.09;7397321;19;20460;-73
2023/05/24 03:22:18;;;;;;;13.93;6.57;;;;;;;8.54;100.00;96505.16;7397518;19;20440;-73
2023/05/24 03:24:47;;;;;;;11.77;5.90;;;;;;;8.47;100.00;96502.22;7397967;19;20892;-73
2023/05/24 03:27:15;;;;;;;9.60;5.87;;;;;;;8.46;100.00;96480.38;7396228;19;20915;-73
2023/05/24 03:29:41;;;;;;;14.67;6.30;;;;;;;8.27;100.00;96467.41;7398829;19;20341;-73
2023/05/24 03:32:09;;;;;;;12.27;6.67;;;;;;;8.35;100.00;96465.16;7396197;19;20432;-73
2023/05/24 03:34:36;;;;;;;11.83;6.50;;;;;;;8.46;100.00;96500.66;7399259;19;20380;-73
2023/05/24 03:37:03;;;;;;;8.80;6.23;;;;;;;8.56;100.00;96485.34;7400280;19;20980;-73
2023/05/24 03:39:30;;;;;;;11.30;6.20;;;;;;;8.38;100.00;96494.28;7414955;19;20389;-74
2023/05/24 03:42:14;;;;;;;10.43;5.60;;;;;;;8.38;100.00;96478.47;7415841;19;20423;-73
2023/05/24 03:44:41;;;;;;;11.63;6.20;;;;;;;8.23;100.00;96476.25;7413801;19;20393;-73
2023/05/24 03:47:08;;;;;;;12.17;6.33;;;;;;;8.50;100.00;96505.00;7413206;19;20463;-73
2023/05/24 03:49:35;;;;;;;10.97;7.33;;;;;;;8.53;100.00;96511.50;7413495;19;20391;-74
2023/05/24 03:52:03;;;;;;;12.67;6.77;;;;;;;8.52;100.00;96496.78;7410662;19;20432;-74
2023/05/24 03:54:30;;;;;;;10.97;6.83;;;;;;;8.41;100.00;96491.03;7413384;19;20384;-74
2023/05/24 03:56:57;;;;;;;11.00;5.33;;;;;;;8.33;100.00;96504.94;7404881;19;20368;-74
2023/05/24 03:59:24;;;;;;;13.97;5.30;;;;;;;8.24;100.00;96491.75;7399413;19;20345;-74
2023/05/24 04:01:51;;;;;;;9.90;6.40;;;;;;;8.43;100.00;96515.22;7394742;19;20428;-73
2023/05/24 04:04:18;;;;;;;10.40;5.23;;;;;;;8.64;100.00;96504.88;7397970;19;20404;-73
2023/05/24 04:06:46;;;;;;;10.07;6.50;;;;;;;8.52;100.00;96517.88;7396711;19;20380;-73
2023/05/24 04:09:15;;;;;;;10.67;5.33;;;;;;;8.35;100.00;96513.34;7398209;19;20376;-73
2023/05/24 04:11:41;;;;;;;7.77;5.50;;;;;;;8.32;100.00;96519.19;7397702;19;20409;-73
2023/05/24 04:14:10;;;;;;;8.83;5.93;;;;;;;8.21;100.00;96494.22;7397766;19;20368;-73
2023/05/24 04:16:38;;;;;;;9.00;5.57;;;;;;;8.34;100.00;96516.25;7396781;19;20450;-73
2023/05/24 04:19:05;;;;;;;12.67;5.40;;;;;;;8.06;100.00;96494.66;7394737;19;20405;-73
2023/05/24 04:21:33;;;;;;;12.87;5.97;;;;;;;8.21;100.00;96510.03;7395169;19;20443;-74
2023/05/24 04:24:01;;;;;;;10.87;5.27;;;;;;;8.25;100.00;96508.31;7395005;19;20772;-73
2023/05/24 04:26:29;;;;;;;9.93;5.63;;;;;;;8.14;100.00;96484.13;7396617;19;20376;-73
2023/05/24 04:28:57;;;;;;;14.10;6.73;;;;;;;8.23;100.00;96502.59;7394809;19;20467;-73
2023/05/24 04:31:24;;;;;;;9.60;5.97;;;;;;;8.21;100.00;96486.31;7393065;19;20436;-73
2023/05/24 04:33:52;;;;;;;11.83;6.10;;;;;;;7.91;100.00;96482.69;7394308;19;21036;-73
2023/05/24 04:36:21;;;;;;;7.60;5.47;;;;;;;8.29;100.00;96517.97;7396237;19;20725;-73
2023/05/24 04:38:52;;;;;;;14.63;5.80;;;;;;;8.02;100.00;96522.69;7396306;19;20344;-73
2023/05/24 04:41:21;;;;;;;6.57;4.47;;;;;;;8.13;100.00;96513.41;7394938;19;20444;-73
2023/05/24 04:43:49;;;;;;;8.10;5.03;;;;;;;8.32;100.00;96528.97;7394629;19;20373;-73
2023/05/24 04:46:16;;;;;;;11.03;5.30;;;;;;;8.16;100.00;96507.53;7397459;19;20380;-73
2023/05/24 04:48:43;;;;;;;12.07;4.83;;;;;;;8.27;100.00;96514.06;7394376;19;20964;-74
2023/05/24 04:51:10;;;;;;;13.27;7.23;;;;;;;8.23;100.00;96524.44;7395587;19;20455;-73
2023/05/24 04:53:37;;;;;;;9.80;5.30;;;;;;;8.35;100.00;96509.94;7394836;19;20432;-74
2023/05/24 04:56:04;;;;;;;15.67;7.20;;;;;;;8.22;100.00;96519.47;7397646;19;20348;-73
2023/05/24 04:58:32;;;;;;;11.17;5.20;;;;;;;8.09;100.00;96504.56;7394706;19;20400;-73
2023/05/24 05:00:59;;;;;;;11.63;5.23;;;;;;;8.26;100.00;96520.41;7395084;19;20953;-73
2023/05/24 05:03:25;;;;;;;8.40;4.40;;;;;;;8.17;100.00;96491.44;7394216;19;20912;-73
2023/05/24 05:05:52;;;;;;;12.37;5.40;;;;;;;8.26;100.00;96521.19;7395968;19;20352;-73
2023/05/24 05:08:19;;;;;;;22.40;5.90;;;;;;;8.15;100.00;96508.63;7395976;19;20680;-74
2023/05/24 05:10:47;;;;;;;13.63;5.00;;;;;;;8.31;100.00;96496.59;7395617;19;20639;-74
2023/05/24 05:13:14;;;;;;;7.30;4.60;;;;;;;8.15;100.00;96496.25;7394463;19;20345;-73
2023/05/24 05:15:41;;;;;;;11.13;5.70;;;;;;;8.55;100.00;96525.94;7396511;19;20372;-73
2023/05/24 05:18:08;;;;;;;8.70;4.53;;;;;;;8.71;100.00;96539.47;7396137;19;20400;-73
2023/05/24 05:20:35;;;;;;;6.60;4.13;;;;;;;8.51;100.00;96540.03;7395812;19;20420;-73
2023/05/24 05:23:02;;;;;;;10.00;4.83;;;;;;;8.47;100.00;96541.75;7394659;19;20365;-73
2023/05/24 05:25:29;;;;;;;7.20;4.73;;;;;;;8.49;100.00;96539.56;7396198;19;20408;-74
2023/05/24 05:27:56;;;;;;;10.10;4.63;;;;;;;8.50;100.00;96522.66;7394936;19;20352;-74
2023/05/24 05:30:23;;;;;;;9.67;4.97;;;;;;;8.29;100.00;96541.66;7390970;19;20440;-74
2023/05/24 05:32:50;;;;;;;10.50;4.50;;;;;;;8.21;100.00;96549.53;7392294;19;20435;-74
2023/05/24 05:35:17;;;;;;;11.57;4.77;;;;;;;7.87;100.00;96521.19;7392506;19;20373;-74
2023/05/24 05:37:44;;;;;;;12.40;5.10;;;;;;;7.95;100.00;96539.69;7395892;19;20340;-73
2023/05/24 05:40:11;;;;;;;13.03;4.70;;;;;;;8.19;100.00;96559.59;7392936;19;20405;-73
2023/05/24 05:42:38;;;;;;;13.50;4.63;;;;;;;7.99;100.00;96558.28;7394717;19;20956;-73
2023/05/24 05:45:06;;;;;;;7.97;4.60;;;;;;;8.12;100.00;96562.66;7401578;19;20352;-73
2023/05/24 05:47:33;;;;;;;11.63;4.50;;;;;;;8.14;100.00;96547.31;7401694;19;20336;-73
2023/05/24 05:50:00;;;;;;;9.20;4.50;;;;;;;8.14;100.00;96549.19;7400243;19;20394;-73
2023/05/24 05:52:27;;;;;;;11.37;4.97;;;;;;;8.37;100.00;96557.81;7399090;19;20442;-74
2023/05/24 05:54:54;;;;;;;10.50;4.77;;;;;;;8.47;100.00;96563.59;7399920;19;20372;-72
2023/05/24 05:57:23;;;;;;;7.80;4.50;;;;;;;8.52;100.00;96568.72;7401633;19;20467;-71
2023/05/24 05:59:50;;;;;;;4.33;3.67;;;;;;;8.14;100.00;96551.81;7399609;19;20400;-71
2023/05/24 06:02:21;;;;;;;8.33;4.53;;;;;;;8.35;100.00;96575.78;7399369;19;20432;-71
2023/05/24 06:04:48;;;;;;;15.50;4.20;;;;;;;8.24;100.00;96575.25;7399931;19;20448;-72
2023/05/24 06:07:15;;;;;;;7.83;4.00;;;;;;;8.33;100.00;96580.56;7401860;19;20368;-71
2023/05/24 06:09:42;;;;;;;10.43;4.40;;;;;;;8.32;100.00;96585.06;7402523;19;20373;-71
2023/05/24 06:12:09;;;;;;;5.73;4.10;;;;;;;8.48;100.00;96577.53;7400885;19;20439;-71
2023/05/24 06:14:37;;;;;;;7.53;4.00;;;;;;;8.62;100.00;96591.38;7401274;19;20345;-71
2023/05/24 06:17:05;;;;;;;13.17;4.40;;;;;;;8.71;100.00;96589.53;7401322;19;20407;-71
2023/05/24 06:19:32;;;;;;;9.60;4.37;;;;;;;8.56;100.00;96596.03;7400423;19;20396;-71
2023/05/24 06:22:00;;;;;;;8.37;4.57;;;;;;;8.52;100.00;96596.91;7401179;19;20417;-72
2023/05/24 06:24:27;;;;;;;13.90;5.00;;;;;;;8.29;100.00;96578.56;7401585;19;20757;-72
2023/05/24 06:26:54;;;;;;;7.37;4.53;;;;;;;8.04;100.00;96581.84;7401252;19;20397;-71
2023/05/24 06:29:23;;;;;;;9.27;4.37;;;;;;;8.37;100.00;96603.38;7401492;19;20359;-71
2023/05/24 06:31:51;;;;;;;10.40;4.50;;;;;;;8.33;100.00;96599.78;7399665;19;20466;-73
2023/05/24 06:34:21;;;;;;;11.73;4.13;;;;;;;8.59;100.00;96619.13;7399883;19;20408;-73
2023/05/24 06:36:49;;;;;;;7.70;4.47;;;;;;;8.79;100.00;96606.44;7401046;19;20360;-73
2023/05/24 06:39:17;;;;;;;6.70;4.57;;;;;;;8.80;100.00;96610.63;7399577;19;20448;-73
2023/05/24 06:41:45;;;;;;;11.63;3.90;;;;;;;8.18;100.00;96565.94;7399585;19;20429;-73
2023/05/24 06:44:13;;;;;;;6.50;4.40;;;;;;;8.48;100.00;96590.72;7399800;19;20361;-73
2023/05/24 06:46:40;;;;;;;9.53;4.20;;;;;;;8.63;100.00;96614.00;7402648;19;20352;-73
2023/05/24 06:49:07;;;;;;;6.93;4.60;;;;;;;8.58;100.00;96622.06;7399673;19;20372;-73
2023/05/24 06:51:35;;;;;;;7.53;4.07;;;;;;;8.59;100.00;96602.53;7396434;19;20413;-73
2023/05/24 06:54:02;;;;;;;7.87;4.47;;;;;;;8.72;100.00;96619.31;7397290;19;20717;-73
2023/05/24 06:56:29;;;;;;;9.50;4.87;;;;;;;8.79;100.00;96615.13;7398900;19;20408;-73
2023/05/24 06:58:57;;;;;;;10.13;3.90;;;;;;;8.86;100.00;96622.59;7398788;19;20905;-73
2023/05/24 07:01:24;;;;;;;7.43;4.47;;;;;;;8.88;100.00;96602.75;7397115;19;20432;-73
2023/05/24 07:03:51;;;;;;;10.97;4.60;;;;;;;9.14;100.00;96623.88;7398730;19;20977;-74
2023/05/24 07:06:18;;;;;;;9.60;4.97;;;;;;;9.06;100.00;96629.13;7399217;19;20333;-73
2023/05/24 07:08:45;;;;;;;8.57;4.03;;;;;;;9.18;100.00;96622.16;7399353;19;20880;-73
2023/05/24 07:11:12;;;;;;;7.43;3.57;;;;;;;9.14;100.00;96584.31;7396785;19;20405;-74
2023/05/24 07:13:39;;;;;;;5.57;4.57;;;;;;;9.16;100.00;96581.38;7399373;19;20364;-73
2023/05/24 07:16:06;;;;;;;10.73;4.93;;;;;;;9.56;100.00;96595.16;7397501;19;20348;-73
2023/05/24 07:18:33;;;;;;;12.70;4.37;;;;;;;9.88;100.00;96601.00;7398871;19;20372;-74
2023/05/24 07:21:00;;;;;;;6.50;4.60;;;;;;;9.40;100.00;96617.84;7396946;19;20420;-74
2023/05/24 07:23:27;;;;;;;10.73;4.80;;;;;;;9.59;100.00;96601.69;7398334;19;20353;-73
2023/05/24 07:25:54;;;;;;;5.67;4.17;;;;;;;9.64;100.00;96607.59;7397132;19;20379;-74
2023/05/24 07:28:21;;;;;;;13.53;5.87;;;;;;;9.63;100.00;96610.53;7399438;19;20372;-73
2023/05/24 07:30:48;;;;;;;8.33;3.97;;;;;;;9.80;100.00;96592.03;7397067;19;20396;-72
2023/05/24 07:33:15;;;;;;;7.27;4.07;;;;;;;10.19;100.00;96621.91;7399086;19;20368;-73
2023/05/24 07:35:44;;;;;;;8.30;4.77;;;;;;;10.10;100.00;96610.59;7398708;19;20348;-73
2023/05/24 07:38:11;;;;;;;9.70;4.10;;;;;;;9.64;100.00;96622.66;7400283;19;20705;-73
2023/05/24 07:40:38;;;;;;;8.57;4.17;;;;;;;9.69;100.00;96581.00;7398349;19;20365;-72
2023/05/24 07:43:05;;;;;;;6.60;3.87;;;;;;;9.81;100.00;96629.78;7396985;19;20385;-73
2023/05/24 07:45:32;;;;;;;15.30;5.97;;;;;;;9.61;100.00;96589.72;7397067;19;20887;-73
2023/05/24 07:48:00;;;;;;;10.50;4.20;;;;;;;9.88;100.00;96601.00;7398669;19;20396;-73
2023/05/24 07:50:28;;;;;;;9.43;4.37;;;;;;;10.10;100.00;96627.22;7395187;19;21003;-73
2023/05/24 07:52:56;;;;;;;10.43;4.00;;;;;;;10.35;100.00;96609.75;7398031;19;20902;-72
2023/05/24 07:55:23;;;;;;;7.97;3.80;;;;;;;10.49;100.00;96623.53;7398454;19;20445;-73
2023/05/24 07:57:50;;;;;;;4.37;3.87;;;;;;;10.29;100.00;96618.97;7396449;19;20420;-73
2023/05/24 08:00:18;;;;;;;11.97;5.27;;;;;;;10.11;100.00;96622.69;7397211;19;20345;-72
2023/05/24 08:02:45;;;;;;;11.80;4.37;;;;;;;9.87;100.00;96591.53;7396364;19;20409;-73
2023/05/24 08:05:13;;;;;;;6.87;3.67;;;;;;;10.28;100.00;96618.19;7396717;19;20380;-73
2023/05/24 08:07:40;;;;;;;11.03;4.57;;;;;;;10.35;100.00;96604.47;7395347;19;20832;-73
2023/05/24 08:10:12;;;;;;;11.50;4.30;;;;;;;10.38;100.00;96621.56;7396846;19;20384;-72
2023/05/24 08:12:40;;;;;;;6.37;3.47;;;;;;;10.84;100.00;96618.09;7395087;19;20416;-73
2023/05/24 08:15:08;;;;;;;7.97;3.67;;;;;;;11.15;100.00;96621.16;7396702;19;20374;-72
2023/05/24 08:17:35;;;;;;;10.17;4.30;;;;;;;10.03;100.00;96611.09;7395895;19;20403;-73
2023/05/24 08:20:07;;;;;;;8.73;4.33;;;;;;;10.49;100.00;96620.13;7398110;19;20380;-72
2023/05/24 08:22:36;;;;;;;8.53;5.30;;;;;;;10.71;100.00;96638.38;7394289;19;20457;-73
2023/05/24 08:25:03;;;;;;;6.87;4.90;;;;;;;10.44;100.00;96607.88;7397042;19;20372;-73
2023/05/24 08:27:30;;;;;;;6.83;3.43;;;;;;;9.89;100.00;96606.00;7395431;19;20352;-73
2023/05/24 08:29:57;;;;;;;6.23;3.90;;;;;;;10.40;100.00;96635.22;7396694;19;20392;-73
2023/05/24 08:32:24;;;;;;;8.70;3.83;;;;;;;9.92;100.00;96642.34;7393664;19;20980;-72
2023/05/24 08:34:55;;;;;;;8.07;4.20;;;;;;;10.08;100.00;96619.59;7396381;19;20420;-73
2023/05/24 08:37:36;;;;;;;6.53;3.57;;;;;;;10.47;100.00;96646.88;7396038;19;20341;-73
2023/05/24 08:40:03;;;;;;;10.03;5.20;;;;;;;10.44;100.00;96623.72;7397209;19;20864;-72
2023/05/24 08:42:31;;;;;;;6.73;3.93;;;;;;;10.36;100.00;96625.28;7394734;19;20420;-73
2023/05/24 08:45:03;;;;;;;10.30;5.00;;;;;;;10.49;100.00;96641.25;7395647;19;20364;-72
2023/05/24 08:47:31;;;;;;;6.00;3.43;;;;;;;9.54;100.00;96610.53;7397131;19;20424;-72
2023/05/24 08:49:59;;;;;;;8.80;4.13;;;;;;;10.07;100.00;96646.34;7394490;19;20369;-72
2023/05/24 08:52:31;;;;;;;10.63;4.23;;;;;;;10.15;100.00;96639.47;7395581;19;20413;-72
2023/05/24 08:54:58;;;;;;;10.63;4.00;;;;;;;10.27;100.00;96616.63;7396551;19;20348;-73
2023/05/24 08:57:27;;;;;;;8.30;3.93;;;;;;;10.42;100.00;96655.00;7397228;19;20376;-73
2023/05/24 08:59:56;;;;;;;13.20;3.77;;;;;;;10.05;100.00;96636.09;7394259;19;20389;-73
2023/05/24 09:02:23;;;;;;;7.80;3.30;;;;;;;10.16;100.00;96646.34;7395968;19;20405;-73
2023/05/24 09:04:51;;;;;;;9.57;4.43;;;;;;;9.70;100.00;96631.94;7395647;19;20345;-73
2023/05/24 09:07:23;;;;;;;11.00;3.93;;;;;;;10.03;100.00;96645.44;7397159;19;20340;-73
2023/05/24 09:09:59;;;;;;;9.50;3.70;;;;;;;10.18;100.00;96655.50;7394472;19;20688;-73
2023/05/24 09:12:31;;;;;;;7.47;4.17;;;;;;;9.71;100.00;96665.19;7394923;19;20444;-72
2023/05/24 09:15:06;;;;;;;7.27;4.90;;;;;;;9.92;100.00;96668.75;7394796;19;20443;-72
2023/05/24 09:17:35;;;;;;;6.10;3.53;;;;;;;9.78;100.00;96639.88;7396224;19;20432;-73
2023/05/24 09:20:05;;;;;;;7.70;4.37;;;;;;;9.78;100.00;96639.09;7402872;19;20340;-73
2023/05/24 09:22:33;;;;;;;11.50;4.20;;;;;;;10.17;100.00;96671.66;7400463;19;20416;-73
2023/05/24 09:25:04;;;;;;;8.20;3.60;;;;;;;9.88;100.00;96672.31;7404191;19;20340;-73
2023/05/24 09:27:33;;;;;;;6.10;3.30;;;;;;;9.96;100.00;96680.22;7401418;19;20372;-73
2023/05/24 09:30:04;;;;;;;8.73;4.50;;;;;;;9.91;100.00;96675.13;7402785;19;20380;-73
2023/05/24 09:32:31;;;;;;;12.10;4.43;;;;;;;9.69;100.00;96664.72;7399028;19;20463;-73
2023/05/24 09:34:58;;;;;;;9.70;3.10;;;;;;;9.82;100.00;96661.13;7403184;19;20956;-73
2023/05/24 09:37:27;;;;;;;6.43;3.97;;;;;;;10.07;100.00;96655.03;7400983;19;20952;-73
2023/05/24 09:39:58;;;;;;;6.20;3.27;;;;;;;9.88;100.00;96653.81;7404858;19;20360;-73
2023/05/24 09:42:27;;;;;;;6.77;3.87;;;;;;;9.92;100.00;96666.09;7398763;19;20471;-73
2023/05/24 09:45:05;;;;;;;14.27;3.57;;;;;;;9.86;100.00;96640.94;7403168;19;20419;-73
2023/05/24 09:47:34;;;;;;;7.43;4.37;;;;;;;9.96;100.00;96668.88;7401788;19;20688;-73
2023/05/24 09:50:03;;;;;;;9.73;4.00;;;;;;;9.81;100.00;96654.31;7402011;19;20384;-73
2023/05/24 09:52:30;;;;;;;5.00;3.03;;;;;;;10.08;100.00;96674.31;7400614;19;20811;-73
2023/05/24 09:54:59;;;;;;;7.53;3.03;;;;;;;10.22;100.00;96645.88;7400064;19;20340;-73
2023/05/24 09:57:27;;;;;;;9.00;4.27;;;;;;;10.51;100.00;96642.50;7402982;19;20365;-73
2023/05/24 09:59:54;;;;;;;14.00;3.40;;;;;;;9.92;100.00;96623.84;7400151;19;20404;-73
2023/05/24 10:02:22;;;;;;;11.20;3.70;;;;;;;10.26;100.00;96667.13;7400647;19;20416;-73
2023/05/24 10:04:59;;;;;;;8.73;3.37;;;;;;;9.83;100.00;96643.44;7400637;19;20376;-73
2023/05/24 10:07:26;;;;;;;9.43;4.50;;;;;;;10.03;100.00;96653.34;7401630;19;20890;-73
2023/05/24 10:09:54;;;;;;;7.80;4.00;;;;;;;10.44;100.00;96673.16;7400182;19;20689;-73
2023/05/24 10:12:22;;;;;;;12.93;3.40;;;;;;;10.25;100.00;96644.44;7399860;19;20453;-73
2023/05/24 10:14:50;;;;;;;7.90;3.97;;;;;;;10.34;100.00;96669.78;7401632;19;20693;-73
2023/05/24 10:17:17;;;;;;;7.13;3.77;;;;;;;10.47;100.00;96665.38;7403117;19;20869;-73
2023/05/24 10:19:45;;;;;;;6.53;3.03;;;;;;;10.82;100.00;96676.59;7401559;19;20913;-73
2023/05/24 10:22:13;;;;;;;10.40;4.80;;;;;;;10.69;100.00;96667.00;7399680;19;20433;-73
2023/05/24 10:24:46;;;;;;;8.43;4.10;;;;;;;10.63;100.00;96652.41;7401480;19;20336;-73
2023/05/24 10:27:18;;;;;;;6.60;3.53;;;;;;;10.69;100.00;96680.22;7398979;19;20388;-74
2023/05/24 10:29:58;;;;;;;6.00;3.37;;;;;;;11.22;100.00;96677.00;7400337;19;20349;-73
2023/05/24 10:32:30;;;;;;;10.50;4.20;;;;;;;11.43;100.00;96668.28;7397782;19;20436;-73
2023/05/24 10:35:01;;;;;;;8.70;2.97;;;;;;;11.23;100.00;96636.19;7401286;19;20376;-73
2023/05/24 10:37:30;;;;;;;5.80;3.57;;;;;;;10.84;100.00;96673.63;7400534;19;20439;-73
2023/05/24 10:39:58;;;;;;;5.57;4.43;;;;;;;10.62;100.00;96656.91;7401275;19;20376;-73
2023/05/24 10:42:26;;;;;;;7.17;3.70;;;;;;;10.54;100.00;96655.06;7397347;19;20412;-73
2023/05/24 10:44:55;;;;;;;6.60;3.40;;;;;;;10.82;100.00;96673.19;7400891;19;20380;-73
2023/05/24 10:47:27;;;;;;;9.33;3.60;;;;;;;10.94;100.00;96652.09;7400048;19;20380;-73
2023/05/24 10:49:57;;;;;;;5.50;3.63;;;;;;;10.70;98.22;96675.72;7397777;19;20457;-73
2023/05/24 10:52:35;;;;;;;6.60;2.93;;;;;;;10.74;98.11;96666.81;7397701;19;20433;-73
2023/05/24 10:55:08;;;;;;;5.30;3.10;;;;;;;10.70;100.00;96659.84;7398610;19;20383;-73
2023/05/24 10:57:37;;;;;;;6.27;3.20;;;;;;;11.03;100.00;96667.91;7400174;19;20758;-73
2023/05/24 11:00:26;;;;;;;7.33;3.83;;;;;;;10.64;100.00;96667.94;7399028;19;20369;-73
2023/05/24 11:03:22;;;;;;;8.00;4.10;;;;;;;11.07;100.00;96671.47;7395620;19;20372;-73
2023/05/24 11:05:52;;;;;;;6.40;3.30;;;;;;;11.07;100.00;96669.59;7398087;19;20407;-73
2023/05/24 11:08:31;;;;;;;7.27;3.90;;;;;;;11.10;99.33;96673.50;7396655;19;20360;-73
2023/05/24 11:11:09;;;;;;;9.23;4.80;;;;;;;11.08;100.00;96663.22;7394520;19;20416;-73
2023/05/24 11:13:40;;;;;;;8.17;4.30;;;;;;;11.14;100.00;96674.41;7397549;19;20393;-73
2023/05/24 11:16:07;;;;;;;6.67;3.20;;;;;;;10.97;99.02;96677.94;7395994;19;20341;-73
2023/05/24 11:18:38;;;;;;;7.83;3.73;;;;;;;10.60;99.45;96627.38;7397080;19;21068;-73
2023/05/24 11:21:06;;;;;;;6.00;3.80;;;;;;;10.47;98.45;96683.09;7396360;19;20390;-73
2023/05/24 11:23:35;;;;;;;6.63;3.87;;;;;;;10.93;98.40;96684.94;7399642;19;20361;-72
2023/05/24 11:33:22;;;;;;;10.67;3.60;;;;;;;11.33;98.06;96680.03;7397535;19;20359;-72
2023/05/24 11:35:54;;;;;;;7.90;3.90;;;;;;;11.26;98.04;96677.13;7396842;19;20731;-73
2023/05/24 11:38:21;;;;;;;11.13;4.10;;;;;;;10.71;99.66;96621.75;7402084;19;20903;-72
2023/05/24 11:40:51;;;;;;;6.50;4.73;;;;;;;10.67;97.24;96669.19;7398540;19;20694;-72
2023/05/24 11:43:19;;;;;;;11.73;4.00;;;;;;;10.79;98.28;96679.84;7398690;19;20387;-73